Regional Weather Synopsis
Issued by NWS Denver/Boulder, CO

Home | Current Version | Previous Version | Text Only | Print | Product List | Glossary On
Versions: 1 2 3 4 5 6 7 8 9 10 11 12 13 14 15 16 17 18 19 20 21 22 23 24 25 26 27 28 29 30 31 32 33 34 35 36 37 38 39 40 41 42 43 44 45 46 47 48 49 50
153
NZUS99 KBOU 200106
SYNBOU

Hot-Air Balloon Forecast for Colorado
National Weather Service Denver/Boulder, Colorado
1805 MST Sunday, November 19, 2017


* * * * * Northeast Colorado * * * * *

METAR KFNL 200056Z AUTO 25005KT 10SM CLR 07/M07 A2995 RMK AO2 SLP154
       T00721067
METAR KFNL 192356Z AUTO 20005KT 10SM CLR 06/M04 A2997 RMK AO2 SLP160
       T00611044 10122 20061 58013
METAR KFNL 192256Z AUTO 17005KT 10SM CLR 08/M03 A2999 RMK AO2 SLP162
       T00831033

METAR KGXY 200056Z AUTO 03005KT 8SM CLR 03/M04 A2996 RMK AO2 SLP187
       T00331039
METAR KGXY 192356Z AUTO 21004KT 10SM CLR 08/M04 A2997 RMK AO2 SLP179
       T00781044 10139 20056 58015
SPECI KGXY 192339Z AUTO 00000KT 10SM CLR 07/M04 A2997 RMK AO2

METAR KLMO 200055Z AUTO 24006KT 10SM CLR 12/M15 A2999 RMK AO2
       T01181152
METAR KLMO 200035Z AUTO 23007KT 10SM CLR 11/M14 A2999 RMK AO2
       T01141143
METAR KLMO 200015Z AUTO 22010KT 10SM CLR 09/M11 A2999 RMK AO2
       T00891110

METAR KBDU 200054Z AUTO 26012KT 10SM CLR 11/M15 A2998 RMK AO2
METAR KBDU 200036Z AUTO 30004KT 10SM CLR 11/M15 A2998 RMK AO2
METAR KBDU 200030Z AUTO 26004KT 10SM CLR 11/M15 A2998 RMK AO2

METAR KEIK 200053Z AUTO 24009KT 10SM CLR 12/M18 A3004 RMK AO2
       T01171177
METAR KEIK 200100Z AUTO 25006KT 10SM CLR 12/M18 A3004 RMK AO2
       T01151181
METAR KEIK 200039Z AUTO 25008KT 10SM CLR 09/M13 A3003 RMK AO2
       T00851132

KBJC 200057Z 2001/2024 29010KT P6SM BKN150 BKN200
      TEMPO 2001/2004 29012G22KT
     FM200400 26018G28KT P6SM FEW130 BKN220
     FM201200 27020G30KT P6SM FEW130 SCT220
     FM202000 29025G35KT P6SM FEW130 SCT220
METAR KBJC 200047Z 00000KT 50SM FEW150 BKN200 11/M17 A3001
METAR KBJC 192347Z 29012G22KT 50SM SCT150 BKN200 13/M18 A3001
METAR KBJC 192255Z 28015G22KT 50SM BKN150 BKN200 13/M17 A3001

KDEN 192324Z 2000/2106 29010KT P6SM SCT140 BKN220
     FM200300 20009KT P6SM FEW140 BKN220
     FM201500 24011KT P6SM FEW140 SCT220
     FM201900 26012KT P6SM FEW130 SCT220
     FM202100 28014KT P6SM FEW080 SCT130 BKN220
     FM210300 33012KT P6SM FEW080 SCT130 BKN220
METAR KDEN 200053Z 29011KT 10SM BKN200 11/M16 A2998 RMK AO2 SLP143
       T01111161
METAR KDEN 192353Z 28008KT 10SM FEW160 BKN200 12/M16 A2998 RMK AO2
       SLP139 T01171161 10161 20106 58009
METAR KDEN 192253Z 31007KT 10SM FEW140 BKN220 12/M12 A3000 RMK AO2
       SLP147 ACSL SW-NW T01171122

METAR KFTG 200047Z 20005KT 10SM SCT140 BKN220 10/M12 A2999
METAR KFTG 192347Z 24005KT 10SM SCT140 BKN220 10/M10 A3000
METAR KFTG 192253Z 28008KT 10SM BKN140 BKN250 12/M10 A3002

METAR KBKF 200058Z 18003KT 10SM SCT150 BKN220 09/M13 A3000 RMK AO2A
       SLP150 T00921126
METAR KBKF 192358Z 00000KT 10SM SCT150 BKN220 11/M16 A3000 RMK AO2A
       SLP141 T01101164 10159 20103 58007
METAR KBKF 192258Z 34006KT 10SM SCT150 BKN220 11/M15 A3001 RMK AO2A
       SLP149 T01101147

KAPA 192324Z 2000/2024 VRB05KT P6SM BKN140 BKN220
     FM200300 20008KT P6SM FEW140 BKN220
     FM201500 24011KT P6SM FEW140 SCT220
     FM201900 26012KT P6SM FEW130 SCT220
     FM202100 28014KT P6SM FEW080 SCT130 BKN220
METAR KAPA 200053Z 18008KT 10SM BKN140 BKN220 07/M08 A3000 RMK AO2
       SLP155 T00721078
METAR KAPA 192353Z 15005KT 10SM BKN140 BKN220 09/M12 A3000 RMK AO2
       SLP156 ACSL DSNT SW-NW T00941117 10156 20094 58006
METAR KAPA 192253Z 01005KT 10SM BKN140 BKN220 12/M13 A3002 RMK AO2
       SLP163 ACSL DSNT SW-NW T01171128

METAR KMNH 200051Z AUTO 23007KT 10SM CLR 05/M12 A3006 RMK AO2
METAR KMNH 200034Z AUTO 25008KT 10SM CLR 03/M10 A3006 RMK AO2
METAR KMNH 200028Z AUTO 25008KT 10SM CLR 03/M10 A3006 RMK AO2

METAR KFMM 200055Z AUTO 25004KT 10SM CLR 07/M10 A2996 RMK AO2
       T00661102
METAR KFMM 200035Z AUTO 25006KT 10SM CLR 06/M10 A2995 RMK AO2
       T00551104
METAR KFMM 200015Z AUTO 25003KT 10SM CLR 07/M10 A2995 RMK AO2
       T00671105

METAR KSTK 200045Z AUTO 21003KT 10SM CLR 05/M06 A2992 RMK AO2
METAR KSTK 200025Z AUTO 27004KT 10SM CLR 03/M06 A2991 RMK AO2
METAR KSTK 200010Z AUTO 26005KT 10SM CLR 04/M06 A2992 RMK AO2

METAR KAKO 200053Z AUTO 21009KT 10SM CLR 06/M12 A2994 RMK AO2 SLP155
       T00611122
METAR KAKO 192353Z AUTO 21004KT 10SM CLR 07/M10 A2996 RMK AO2 SLP156
       T00721100 10161 20072 58012
METAR KAKO 192253Z AUTO 30004KT 10SM CLR 12/M11 A2997 RMK AO2 SLP152
       T01171111

METAR KLIC 200055Z AUTO 00000KT 10SM CLR M01/M10 A3000 RMK AO2 SLP196
       T10061100
METAR KLIC 192355Z AUTO 00000KT 10SM CLR 06/M12 A2999 RMK AO2 SLP183
       T00561117 10156 20056 58011
METAR KLIC 192255Z AUTO 15006KT 10SM CLR 10/M13 A3002 RMK AO2 SLP180
       T01001128

METAR KHEQ 200050Z AUTO 21004KT 10SM CLR 05/M10 A2993 RMK AO2
METAR KHEQ 200035Z AUTO 22004KT 7SM CLR 05/M10 A2992 RMK AO2
METAR KHEQ 200025Z AUTO 21005KT 10SM CLR 06/M10 A2993 RMK AO2


METAR KITR 200053Z AUTO 20010KT 10SM CLR 04/M11 A2998 RMK AO2 SLP171
       T00391106
METAR KITR 192353Z AUTO 19008KT 10SM CLR 06/M11 A2999 RMK AO2 SLP176
       T00611111 10167 20061 56011
METAR KITR 192253Z AUTO 21007KT 10SM CLR 13/M11 A3000 RMK AO2 SLP164
       T01281106

Sunrise/Sunset for 11/19/2017
Fort Collins - 06:51:58 MST / 16:39:33 MST
Denver       - 06:49:30 MST / 16:41:10 MST
Sterling     - 06:44:48 MST / 16:31:53 MST

Denver/Boulder (KFTG) 11/20/17 00:46 UTC
Radar VAD winds      Height      Dir/Spd(kt)
                   7000 FT MSL...281/027
                   6600 FT MSL...354/035

Denver/Boulder Aviation Discussion
Issued at 2157 UTC Sunday, November 19, 2017

.AVIATION...(For the 00Z TAFS through 00Z Monday evening)
Issued at 257 PM MST Sun Nov 19 2017
Models point to downsloping low level winds at DIA tonight and
Monday. There will be no ceiling issues.


* * * * * Southeast Colorado * * * * *

METAR K4BM 200048Z AUTO 28010G19KT 10SM CLR M02/M23 A3021 RMK AO2 LTG
       DSNT NW
METAR K4BM 200054Z AUTO 28011G19KT 10SM CLR M02/M23 A3021 RMK AO2 LTG
       DSNT NW
METAR K4BM 200030Z AUTO 28010G19KT 10SM CLR M02/M23 A3021 RMK AO2 LTG
       DSNT NW

METAR KAFF 200058Z AUTO 34005KT 10SM OVC190 09/M16 A3004 RMK AO2 SLP174
       T00891164
METAR KAFF 192358Z AUTO 31007KT 10SM SCT180 10/M16 A3004 RMK AO2 SLP168
       T01001163 10137 20099 56004
METAR KAFF 192258Z AUTO 27014G18KT 10SM FEW190 11/M17 A3004 RMK AO2
       SLP162 T01101174

KCOS 192331Z 2000/2024 VRB06KT P6SM FEW180 BKN250
     FM200300 36009KT P6SM SCT250
     FM201500 36008KT P6SM BKN250
     FM201800 25010KT P6SM BKN200
     FM202100 26014KT P6SM BKN200
METAR KCOS 200054Z 16005KT 10SM FEW170 BKN210 09/M12 A3004 RMK AO2
       SLP178 T00941122
METAR KCOS 192354Z 06004KT 10SM SCT180 BKN250 11/M11 A3003 RMK AO2
       SLP170 T01061106 10144 20094 57007
METAR KCOS 192254Z 11003KT 10SM FEW180 BKN250 12/M11 A3004 RMK AO2
       SLP171 ACSL SW T01221111


METAR KFLY 200055Z AUTO 30009KT 10SM CLR 07/M17 A3006 RMK AO2
       T00701169
METAR KFLY 200035Z AUTO 29009KT 10SM CLR 07/M16 A3006 RMK AO2
       T00701164
METAR KFLY 200015Z AUTO 29010KT 10SM CLR 06/M16 A3006 RMK AO2
       T00641159

KFCS 192101Z 1921/2103 13009KT 9999 FEW250 QNH3001INS
     BECMG 2002/2003 33009KT 9999 FEW250 QNH2992INS
     BECMG 2016/2017 24009KT 9999 SCT200 QNH2985INS
     BECMG 2100/2101 33009KT 9999 BKN150 QNH2986INS TX17/2021Z
     TNM05/2012Z
METAR KFCS 200058Z AUTO 00000KT 10SM BKN200 07/M09 A3001 RMK AO2 SLP197
       T00691088
METAR KFCS 192358Z AUTO 26004KT 10SM CLR 10/M10 A3001 RMK AO2 SLP192
       T00981096 10150 20098 401501055 56006
METAR KFCS 192258Z AUTO 00000KT 10SM CLR 14/M09 A3002 RMK AO2 SLP184
       T01361093

KPUB 192331Z 2000/2024 VRB06KT P6SM BKN250
     FM200600 29008KT P6SM SCT250
     FM201500 28010KT P6SM BKN200
     FM201900 18015KT P6SM BKN200
METAR KPUB 200053Z 00000KT 10SM CLR 08/M11 A2998 RMK AO2 SLP169
       T00781106
METAR KPUB 192353Z 26010KT 10SM CLR 11/M11 A2998 RMK AO2 SLP156
       T01061111 10178 20089 56012
METAR KPUB 192253Z 25007KT 10SM CLR 17/M14 A2998 RMK AO2 SLP150
       T01671139

METAR KVTP 200052Z AUTO 22014KT 10SM CLR M01/M17 RMK AO2
METAR KVTP 200058Z AUTO 22015KT 10SM CLR M01/M17 RMK AO2
METAR KVTP 200034Z AUTO 22015G23KT 10SM CLR M01/M17 RMK AO2

METAR KTAD 200054Z AUTO 25010KT 10SM CLR 04/M06 A3004 RMK AO2 SLP179
       T00441061
METAR KTAD 192354Z AUTO 00000KT 10SM CLR 12/M13 A3003 RMK AO2 SLP153
       T01221128 10161 20106 56009
METAR KTAD 192254Z AUTO 00000KT 10SM CLR 15/M12 A3004 RMK AO2 SLP150
       T01501122

METAR KLHX 200053Z AUTO 10005KT 10SM CLR 09/M07 A2998 RMK AO2 SLP156
       T00891072 TSNO $
METAR KLHX 192353Z AUTO 07006KT 10SM CLR 11/M07 A2998 RMK AO2 SLP152
       T01111072 10172 20089 56015 TSNO $
METAR KLHX 192253Z AUTO 08006KT 10SM CLR 16/M07 A2999 RMK AO2 SLP146
       T01611072 TSNO $

METAR KLAA 200053Z AUTO 16004KT 10SM CLR 04/M12 A2996 RMK AO2 SLP169
       T00391117 $
METAR KLAA 192353Z AUTO 09007KT 10SM CLR 07/M09 A2997 RMK AO2 SLP165
       T00721089 10167 20072 56019 $
METAR KLAA 192253Z AUTO 05004KT 10SM CLR 14/M07 A2999 RMK AO2 SLP164
       T01391072 $

METAR KSPD 200056Z AUTO 19012KT 06/M09 A3001 RMK AO1 SLP170
       T00611089
METAR KSPD 192356Z AUTO 18012KT 07/M09 A3001 RMK AO1 SLP167 T00721094
       10167 20067 56012
METAR KSPD 192256Z AUTO 18010KT 12/M10 A3002 RMK AO1 SLP163
       T01221100

Sunrise/Sunset for 11/19/2017
Burlington - 06:37:43 MST / 16:31:26 MST
Pueblo     - 06:44:38 MST / 16:43:18 MST
Lamar      - 06:36:12 MST / 16:35:42 MST

Pueblo (KPUX) 11/20/17 00:54 UTC
Radar VAD winds      Height      Dir/Spd(kt)
                   7000 FT MSL...257/005
                   6300 FT MSL...278/012
                   6000 FT MSL...176/004
                   5700 FT MSL...177/009

Pueblo Aviation Discussion
Issued at 2156 UTC Sunday, November 19, 2017

.AVIATION...(For the 00Z TAFS through 00Z Monday evening)
Issued at 256 PM MST Sun Nov 19 2017
VFR conditions are expected the next 24 hrs at KCOS, KPUB, and KALS.
Only some high level clouds will be over the area at times.  Winds
are expected to be mostly 10 kts or less at the terminal forecast
sites thru Mon morning, and then the winds should be westerly 10-15
kts, but maybe a bit more gusty at KPUB in the mid to late afternoon
hours.


* * * * * Northwest Colorado * * * * *

METAR KCAG 200053Z AUTO 24004KT 10SM CLR M04/M08 A3013 RMK AO2 SLP269
       T10391083
METAR KCAG 192353Z AUTO 00000KT 10SM CLR M01/M07 A3013 RMK AO2 SLP261
       T10111067 10044 21028 56018
METAR KCAG 192253Z AUTO 00000KT 10SM CLR 03/M06 A3016 RMK AO2 SLP259
       T00331056

METAR KHDN 200056Z AUTO 14003KT 10SM CLR M03/M07 A3014 RMK AO2 SLP255
       T10331067 FZRANO
METAR KHDN 192356Z AUTO VRB03KT 10SM CLR M01/M06 A3015 RMK AO2 SLP250
       T10061056 10050 21022 56016 FZRANO
METAR KHDN 192256Z AUTO 00000KT 10SM CLR 02/M05 A3017 RMK AO2 SLP248
       T00221050 FZRANO


METAR K33V 200055Z AUTO 21014KT 10SM CLR 00/M14 A3012 RMK AO1
METAR K33V 200035Z AUTO 21011KT 10SM CLR 00/M14 A3013 RMK AO1
METAR K33V 200015Z AUTO 20009KT 10SM CLR M01/M14 A3013 RMK AO1

METAR KEEO 200053Z AUTO 00000KT 10SM CLR 00/M08 A3014 RMK AO2 SLP245
       T00001078
METAR KEEO 192353Z AUTO 26007KT 10SM CLR 04/M11 A3014 RMK AO2 SLP237
       T00391111 10072 21033 56014
METAR KEEO 192253Z AUTO 22006KT 10SM CLR 07/M10 A3016 RMK AO2 SLP230
       T00671100

METAR K20V 200048Z AUTO 16003KT 10SM CLR 01/M10 A3015 RMK AO2
METAR K20V 200054Z AUTO 00000KT 10SM CLR 01/M10 A3014 RMK AO2
METAR K20V 200030Z AUTO 00000KT 10SM CLR 01/M10 A3015 RMK AO2

METAR K0CO 200048Z AUTO 31026G30KT 10SM CLR M08/M14 A3015 RMK AO2
METAR K0CO 200054Z AUTO 31027G36KT 10SM CLR M08/M14 A3015 RMK AO2
METAR K0CO 200030Z AUTO 30033G41KT 10SM CLR M07/M13 A3015 RMK AO2

KGJT 192334Z 2000/2024 30004KT P6SM SKC
     FM200200 10005KT P6SM SKC
     FM201200 13007KT P6SM SCT200
     FM202000 32005KT P6SM BKN200
METAR KGJT 200053Z 00000KT 10SM CLR 00/M10 A3018 RMK AO2 SLP255
       T00001100
METAR KGJT 192353Z 28004KT 10SM CLR 06/M09 A3019 RMK AO2 SLP242
       T00561089 10072 20022 56019
METAR KGJT 192253Z 30004KT 10SM CLR 07/M08 A3020 RMK AO2 SLP241
       T00671078

KRIL 192334Z 2000/2024 VRB04KT P6SM FEW250
     FM202000 28006KT P6SM BKN200
METAR KRIL 200053Z AUTO 17004KT 10SM CLR 00/M04 A3019 RMK AO2 SLP256
       T00001044
METAR KRIL 192353Z AUTO 21006KT 10SM CLR 02/M05 A3019 RMK AO2 SLP254
       T00171050 10056 21017 56016
METAR KRIL 192253Z AUTO 00000KT 10SM CLR 05/M08 A3020 RMK AO2 SLP249
       T00501078

METAR K5SM 200047Z AUTO 23013G19KT 10SM CLR M05/M15 A3026 RMK AO2
METAR K5SM 200053Z AUTO 22012G19KT 10SM CLR M05/M16 A3025 RMK AO2
METAR K5SM 200035Z AUTO 22011G20KT 10SM CLR M06/M15 A3026 RMK AO2

KEGE 192334Z 2000/2024 VRB04KT P6SM SKC
     FM201700 23004KT P6SM SCT200
     FM202000 24008G18KT P6SM BKN200
METAR KEGE 200056Z 08005KT 10SM CLR 01/M06 A3019 RMK AO2 SLP280
       T00061061
METAR KEGE 192356Z 36003KT 10SM CLR 03/M07 A3017 RMK AO2 SLP270
       T00331067 10056 21033 56020
METAR KEGE 192256Z 00000KT 10SM CLR 05/M08 A3019 RMK AO2 SLP270
       T00501078

KASE 192334Z 2000/2024 32006KT P6SM FEW250
     FM200100 21008KT P6SM FEW200
     FM201700 33008G18KT P6SM BKN200
METAR KASE 200053Z 20007KT 10SM CLR M03/M07 A3017 RMK AO2 SLP247
       T10331072
METAR KASE 192353Z 20004KT 10SM CLR 00/M06 A3018 RMK AO2 SLP234
       T00001061 10033 21017 55006
METAR KASE 192253Z 32006KT 10SM CLR 02/M05 A3018 RMK AO2 SLP230
       T00221050

METAR KCCU 200047Z AUTO 10SM CLR M04/M17 A3023 RMK AO2
METAR KCCU 200053Z AUTO 10SM CLR M04/M17 A3023 RMK AO2
METAR KCCU 200030Z AUTO 10SM CLR M04/M17 A3023 RMK AO2

METAR KLXV 200053Z AUTO 02005KT 10SM CLR M04/M17 A3017 RMK AO2 SLP215
       T10391167
METAR KLXV 192353Z AUTO 33006KT 10SM CLR M02/M17 A3018 RMK AO2 SLP199
       T10221167 10033 21022 58008
METAR KLXV 192253Z AUTO 33008KT 10SM CLR 01/M17 A3020 RMK AO2 SLP205
       T00061172

Sunrise/Sunset for 11/19/2017
Rangely           - 07:05:39 MST / 16:55:33 MST
Grand Junction    - 07:02:19 MST / 16:57:05 MST
Steamboat Springs - 06:58:47 MST / 16:46:45 MST

Grand Junction (KGJX) 11/20/17 00:48 UTC
Radar VAD winds      Height      Dir/Spd(kt)
                  22000 FT MSL...291/000
                  17000 FT MSL...011/001
                  10400 FT MSL...250/013

Grand Junction Aviation Discussion
Issued at 2336 UTC Sunday, November 19, 2017

.AVIATION...(For the 00Z TAFS through 00Z Monday evening)
Issued at 436 PM MST Sun Nov 19 2017
VFR conditions will prevail over the next 24 hours with some
passing high clouds Monday morning increasing in coverage by
Monday evening. Light terrain driven winds expected with some
breezy afternoon winds at the higher elevation TAF sites.


* * * * * Southwest Colorado * * * * *

METAR KAJZ 200055Z AUTO 00000KT 10SM CLR 03/M08 A3019 RMK AO2
       T00251080
METAR KAJZ 200035Z AUTO 21003KT 10SM CLR 03/M08 A3019 RMK AO2
       T00321081
METAR KAJZ 200015Z AUTO 21004KT 10SM CLR 04/M08 A3018 RMK AO2
       T00421085

KMTJ 192334Z 2000/2024 34004KT P6SM SKC
     FM200300 15007KT P6SM SKC
     FM201500 VRB04KT P6SM SCT200
     FM201900 34005KT P6SM BKN200
METAR KMTJ 200053Z AUTO 36003KT 10SM CLR 02/M08 A3021 RMK AO2 SLP243
       T00221083
METAR KMTJ 192353Z AUTO 33005KT 10SM CLR 04/M06 A3020 RMK AO2 SLP236
       T00391061 10078 20017 56015
METAR KMTJ 192253Z AUTO 34004KT 10SM CLR 07/M07 A3021 RMK AO2 SLP232
       T00721067

METAR KGUC 200056Z AUTO 31005KT 10SM CLR M04/M08 A3023 RMK AO2 SLP312
       T10391078 FZRANO
METAR KGUC 192356Z AUTO 00000KT 10SM CLR M01/M08 A3023 RMK AO2 SLP301
       T10061083 10011 21056 56014 FZRANO
METAR KGUC 192256Z AUTO 00000KT 10SM CLR 01/M09 A3025 RMK AO2 SLP298
       T00061089 FZRANO

METAR K7BM 200048Z AUTO 29012G23KT 250V320 10SM CLR 04/M23 A3017 RMK
       AO2
METAR K7BM 200054Z AUTO 30010G24KT 260V360 10SM CLR 03/M22 A3018 RMK
       AO2
METAR K7BM 200030Z AUTO 26014G27KT 240V300 10SM CLR 04/M24 A3017 RMK
       AO2

METAR KAEJ 200055Z AUTO 30008KT 10SM CLR 03/M16 A3015 RMK AO2
       T00301158
METAR KAEJ 200035Z AUTO 28008KT 10SM CLR 04/M16 A3014 RMK AO2
       T00351165
METAR KAEJ 200015Z AUTO 33004KT 10SM CLR 04/M17 A3014 RMK AO2
       T00401174

METAR KANK 200055Z AUTO 23011KT 10SM CLR 06/M18 A3020 RMK AO1
       T00601184
METAR KANK 200035Z AUTO 24010G19KT 10SM CLR 06/M18 A3020 RMK AO1
       T00621185
METAR KANK 200015Z AUTO 24015G19KT 10SM CLR 07/M18 A3020 RMK AO1
       T00671180

METAR KMYP 200049Z AUTO 27027KT CLR M06/M15 A3033 RMK AO2 PWINO
METAR KMYP 200055Z AUTO 27027KT CLR M06/M15 A3034 RMK AO2 PWINO
METAR KMYP 200031Z AUTO 27025KT CLR M06/M15 A3034 RMK AO2 PWINO

METAR KAIB 200155Z AUTO 00000KT 10SM CLR 07/M15 A3021 RMK AO2
METAR KAIB 200135Z AUTO 00000KT 10SM CLR 06/M15 A3022 RMK AO2
METAR KAIB 200115Z AUTO 00000KT 10SM CLR 06/M15 A3021 RMK AO2

KTEX 192334Z 2000/2024 25006KT P6SM SKC
     FM200200 14006KT P6SM SKC
     FM201700 27008G16KT P6SM BKN200
METAR KTEX 200055Z AUTO 13006KT 10SM CLR 00/M14 A3025 RMK AO2
       T00041143
METAR KTEX 200035Z AUTO 16004KT 10SM CLR 02/M16 A3025 RMK AO2
       T00151157
METAR KTEX 200015Z AUTO 00000KT 10SM CLR 03/M18 A3025 RMK AO2
       T00251180

METAR K04V 200048Z AUTO 03005KT 10SM CLR M02/M16 A3019 RMK AO2
METAR K04V 200054Z AUTO 03005KT 10SM CLR M02/M16 A3019 RMK AO2
METAR K04V 200030Z AUTO 11004KT 10SM CLR 00/M15 A3019 RMK AO2

METAR KCEZ 200053Z AUTO 24003KT 10SM CLR 02/M09 A3019 RMK AO2 SLP250
       T00221094
METAR KCEZ 192353Z AUTO 19007KT 10SM CLR 04/M09 A3019 RMK AO2 SLP243
       T00391094 10094 20039 56014
METAR KCEZ 192253Z AUTO 21006KT 10SM CLR 08/M11 A3019 RMK AO2 SLP233
       T00831106

KDRO 192334Z 2000/2024 21006KT P6SM SKC
     FM200200 VRB04KT P6SM SKC
     FM201900 24006G15KT P6SM FEW250
METAR KDRO 200053Z AUTO 00000KT 10SM CLR 04/M10 A3018 RMK AO2 SLP254
       T00441100
METAR KDRO 192353Z AUTO 23004KT 10SM CLR 06/M09 A3017 RMK AO2 SLP247
       T00611094 10100 20039 56010
METAR KDRO 192253Z AUTO 19007KT 10SM CLR 09/M11 A3018 RMK AO2 SLP245
       T00891106

METAR KPSO 200055Z AUTO 00000KT 10SM CLR 00/M10 A3021 RMK AO2
       T00001097
METAR KPSO 200035Z AUTO 00000KT 10SM CLR 02/M11 A3020 RMK AO2
       T00221109
METAR KPSO 200015Z AUTO 00000KT 10SM CLR 04/M12 A3019 RMK AO2
       T00411118

METAR KCPW 200047Z AUTO 23007KT 10SM CLR M05/M16 A3033 RMK AO2
METAR KCPW 200028Z AUTO 23009KT 10SM CLR M05/M16 A3033 RMK AO2
METAR KCPW 200007Z AUTO 23008KT 10SM SCT120 M05/M16 A3032 RMK AO2

KALS 192331Z 2000/2024 VRB05KT P6SM BKN200
     FM200400 VRB04KT P6SM SCT200
     FM201300 VRB04KT P6SM BKN200
     FM202100 24008KT P6SM BKN200
METAR KALS 200052Z AUTO 26003KT 10SM CLR 00/M12 A3016 RMK AO2 SLP259
       T00001122
METAR KALS 192352Z AUTO 22005KT 10SM CLR 03/M12 A3017 RMK AO2 SLP245
       T00331117 10083 20017 56010
METAR KALS 192252Z AUTO VRB03KT 10SM CLR 08/M14 A3017 RMK AO2 SLP240
       T00781139

Sunrise/Sunset for 11/19/2017
Vail    - 06:54:52 MST / 16:46:58 MST
Durango - 06:55:23 MST / 16:58:32 MST
Alamosa - 06:47:49 MST / 16:50:08 MST

Grand Junction (KGJX) 11/20/17 00:48 UTC
Radar VAD winds      Height      Dir/Spd(kt)
                  22000 FT MSL...291/000
                  17000 FT MSL...011/001
                  10400 FT MSL...250/013

Grand Junction Aviation Discussion
Issued at 2336 UTC Sunday, November 19, 2017

.AVIATION...(For the 00Z TAFS through 00Z Monday evening)
Issued at 436 PM MST Sun Nov 19 2017
VFR conditions will prevail over the next 24 hours with some
passing high clouds Monday morning increasing in coverage by
Monday evening. Light terrain driven winds expected with some
breezy afternoon winds at the higher elevation TAF sites.


* * * * * Arizona * * * * *

KPGA 192326Z 2000/2024 VRB03KT P6SM SCT250
METAR KPGA 200053Z AUTO 00000KT 10SM CLR 07/M09 A3018 RMK AO2 SLP221
       T00671094 TSNO
METAR KPGA 192353Z AUTO 01003KT 10SM CLR 09/M11 A3017 RMK AO2 SLP211
       T00891111 10106 20050 55014 TSNO
METAR KPGA 192253Z AUTO 00000KT 10SM CLR 10/M11 A3017 RMK AO2 SLP210
       T01001111 TSNO

METAR KRQE 200053Z AUTO 08003KT 10SM CLR 05/M14 A3019 RMK AO2 SLP230
       T00501144 TSNO
METAR KRQE 192353Z AUTO 09007KT 10SM CLR 09/M15 A3018 RMK AO2 SLP213
       T00941150 10156 20067 55006 TSNO
METAR KRQE 192253Z AUTO 11006KT 10SM CLR 13/M16 A3017 RMK AO2 SLP200
       T01331161 TSNO

Flagstaff (KFSX) 11/20/17 00:54 UTC
Radar VAD winds      Height      Dir/Spd(kt)
                  10200 FT MSL...330/007
                  10000 FT MSL...354/008
                   9000 FT MSL...060/009
                   8500 FT MSL...074/007
                   8000 FT MSL...049/009
                   7800 FT MSL...071/009

Flagstaff Aviation Discussion
Issued at 2235 UTC Sunday, November 19, 2017

.AVIATION...For the 00Z package...Expect VFR conditions with
increasing upper-level clouds tonight and Monday (cloud bases
aoa 25kft msl). Generally light winds are anticipated with
speeds 10 kts or less. Aviation discussion not updated for TAF
amendments.


* * * * * Utah * * * * *

KSLC 192345Z 2000/2106 32007KT P6SM SCT200
     FM200300 15007KT P6SM BKN200
     FM201300 15010KT P6SM SCT080 BKN120
     FM201900 34007KT P6SM SCT050 BKN070
     FM210300 15006KT P6SM BKN070
METAR KSLC 200054Z 33003KT 10SM FEW200 BKN250 04/M01 A3012 RMK AO2
       SLP197 T00441011 $
METAR KSLC 192354Z 32008KT 10SM FEW200 BKN250 06/M01 A3015 RMK AO2
       SLP212 T00611011 10094 20039 55004 $
METAR KSLC 192254Z 33007KT 10SM FEW250 08/M03 A3013 RMK AO2 SLP201
       T00831028 $

KVEL 192334Z 2000/2024 VRB04KT P6SM SKC
     FM200300 29004KT P6SM SCT200
     FM201600 15005KT P6SM BKN200
METAR KVEL 200053Z AUTO 27005KT 10SM CLR M02/M12 A3015 RMK AO2 SLP249
       T10221117
METAR KVEL 192353Z AUTO 34003KT 10SM CLR 03/M12 A3014 RMK AO2 SLP233
       T00331122 10056 20000 56021
METAR KVEL 192253Z AUTO 00000KT 10SM CLR 05/M13 A3016 RMK AO2 SLP235
       T00501133

METAR KPUC 200053Z AUTO 00000KT 10SM CLR 00/M14 A3019 RMK AO2 SLP273
       T00001139
METAR KPUC 192353Z AUTO 00000KT 10SM CLR 03/M14 A3018 RMK AO2 SLP261
       T00281139 10056 20017 56015
METAR KPUC 192253Z AUTO 00000KT 10SM CLR 04/M14 A3019 RMK AO2 SLP262
       T00441139

KCNY 192334Z 2000/2024 VRB04KT P6SM SKC
     FM201000 VRB04KT P6SM SCT250
     FM201900 33006KT P6SM BKN250
METAR KCNY 200053Z AUTO 32007KT 10SM CLR 02/M15 A3019 RMK AO2 SLP249
       T00221150
METAR KCNY 192353Z AUTO 30006KT 10SM CLR 06/M14 A3018 RMK AO2 SLP236
       T00561139 10078 20044 56019
METAR KCNY 192253Z AUTO 00000KT 10SM CLR 08/M13 A3019 RMK AO2 SLP239
       T00781128


Salt Lake City (KMTX) 11/20/17 00:52 UTC
Radar VAD winds      Height      Dir/Spd(kt)
                  11000 FT MSL...297/003
                  11000 FT MSL...296/003
                  10000 FT MSL...287/004
                   9300 FT MSL...281/008
                   9000 FT MSL...298/001
                   7600 FT MSL...079/003
                   7000 FT MSL...263/003
                   6900 FT MSL...185/010

Salt Lake City Aviation Discussion
Issued at 2224 UTC Sunday, November 19, 2017

.AVIATION...Winds at the SLC terminal are expected to switch to the
southeast around 02-04Z. Ceilings will lower through the overnight
hours, but should remain well above 7000 feet through at least 12Z.


* * * * * Wyoming * * * * *

KEVW 192345Z 2000/2024 22007KT P6SM BKN200
     FM201400 22010KT P6SM SCT070 BKN120
     FM202000 24015G24KT P6SM VCSH SCT030 BKN050=
METAR KEVW 200053Z AUTO 23005KT 10SM CLR M02/M07 A3012 RMK AO2 SLP227
       T10221072
METAR KEVW 192353Z AUTO 23008KT 10SM CLR M02/M06 A3011 RMK AO2 SLP224
       T10171061 10000 21061 56008
METAR KEVW 192253Z AUTO 24008KT 10SM CLR M01/M05 A3011 RMK AO2 SLP221
       T10061050

KRKS 192324Z 2000/2024 28007KT P6SM SCT200
     FM200900 23012G18KT P6SM BKN200
     FM201800 26015G25KT P6SM BKN040 OVC150
     FM202200 26020G30KT P6SM SCT020 BKN030
METAR KRKS 200054Z AUTO 21006KT 10SM CLR M03/M10 A3010 RMK AO2 SLP244
       T10331100
METAR KRKS 192354Z AUTO 20004KT 10SM CLR M02/M09 A3010 RMK AO2 SLP243
       T10221094 10006 21056 55013
METAR KRKS 192254Z AUTO 25006KT 10SM CLR 00/M08 A3010 RMK AO2 SLP236
       T00001083

KRWL 192320Z 2000/2024 24017G28KT P6SM SCT200
     FM201500 24025G35KT P6SM BKN200
METAR KRWL 200053Z AUTO 25010KT 10SM CLR M01/M10 A3005 RMK AO2 SNE2357
       SLP197 P0000 T10061100
METAR KRWL 192353Z AUTO 24019G27KT 9SM -SN CLR 01/M10 A3003 RMK AO2 PK
       WND 24027/2347 SNB48 SLP184 P0000 60000 T00061100 10033 20006
       58018
METAR KRWL 192253Z AUTO 24016KT 10SM CLR 01/M09 A3006 RMK AO2 SLP192
       T00111089

KLAR 192320Z 2000/2024 23015KT P6SM SCT200
     FM200500 24020G30KT P6SM SCT200
     FM201500 25030G40KT P6SM SCT200
METAR KLAR 200053Z AUTO 26020G26KT 10SM CLR 02/M13 A2998 RMK AO2 PK WND
       25030/0037 SLP157 T00221133
METAR KLAR 192353Z AUTO 21012KT 10SM CLR 00/M10 A3001 RMK AO2 SLP176
       T00001100 10056 20000 58016
METAR KLAR 192253Z AUTO 21012KT 10SM CLR 04/M09 A3004 RMK AO2 SLP172
       T00391094

KCYS 192320Z 2000/2024 25020G30KT P6SM BKN200
     FM200100 28015G25KT P6SM SCT200
     FM201500 28030G40KT P6SM SCT200
METAR KCYS 200053Z 24013KT 10SM CLR 05/M12 A2995 RMK AO2 PK WND
       25028/0015 SLP138 T00501122
METAR KCYS 192353Z 25019G29KT 10SM CLR 07/M14 A2996 RMK AO2 PK WND
       24033/2258 SLP138 T00721139 10117 20072 56019
METAR KCYS 192253Z 24028G34KT 10SM CLR 09/M14 A2998 RMK AO2 PK WND
       24034/2253 SLP141 T00891139

Riverton (KRIW) 11/20/17 00:55 UTC
Radar VAD winds      Height      Dir/Spd(kt)
                   6500 FT MSL...130/010
                   6000 FT MSL...245/009
                   5900 FT MSL...247/007

Cheyenne (KCYS) 11/20/17 00:54 UTC
Radar VAD winds      Height      Dir/Spd(kt)
                   7100 FT MSL...272/027

Riverton Aviation Discussion
Issued at 2025 UTC Sunday, November 19, 2017

.AVIATION...For the 00Z TAFS Sunday night through 00Z Monday night
Issued at 106 PM MST Sun Nov 19 2017
VFR conditions will persist through tonight and, for areas east of
the divide, through the day tomorrow. MVFR conditions are expected
west of the divide with the arrival of our next system mid to late
Monday morning. KJAC/KBPI/KPNA will see the most weather, but with
snow accumulations will be low cigs and vis will be the main impact.
Winds will continue to remain gusty at KCOD and KCPR through the
forecast period. Some LLWS will occur along the east slopes of the
mountains.

Cheyenne Aviation Discussion
Issued at 2320 UTC Sunday, November 19, 2017

.AVIATION...(For the 00Z TAFS through 00Z Monday afternoon)
Issued at 420 PM MST Sun Nov 19 2017
VFR with SCT high clouds will prevail through the TAF period. Main
concerns for aviation operations will be the windy conditions and
mountain wave turbulence tonight and Monday for southeast WY. It
will be breezy this evening with west to southwest surface winds
gusting 25-30 KT. These winds will increase after 15Z Monday with
gusts 35-45 KT. Stronger gusts will be possible over and near the
mountains. Across western NE, westerly surface winds around 10 KT
tonight will increase after 16Z Monday, with gusts 25-35 KT.


* * * * * Nebraska * * * * *

METAR KIBM 200055Z AUTO 25007KT 10SM CLR 01/M10 A2994 RMK AO2
       T00061096
METAR KIBM 200035Z AUTO 24007KT 10SM CLR 01/M09 A2994 RMK AO2
       T00131095
METAR KIBM 200015Z AUTO 24008KT 10SM CLR 04/M10 A2993 RMK AO2
       T00391096

KSNY 192320Z 2000/2024 25011KT P6SM SCT250
     FM200600 28014KT P6SM SCT250
     FM201600 29025G35KT P6SM SCT250
METAR KSNY 200053Z AUTO 22008KT 10SM CLR M01/M08 A2992 RMK AO2 SLP173
       T10111078
METAR KSNY 192353Z AUTO 24009KT 10SM CLR 02/M06 A2993 RMK AO2 SLP166
       T00171061 10161 20017 58013
METAR KSNY 192253Z AUTO 22010KT 10SM CLR 09/M04 A2995 RMK AO2 SLP161
       T00891044

METAR KOGA 200055Z AUTO 00000KT 10SM CLR 03/M06 A2991 RMK AO2
       T00341064
METAR KOGA 200035Z AUTO 25003KT 10SM CLR 03/M06 A2991 RMK AO2
       T00341063
METAR KOGA 200015Z AUTO 27003KT 10SM CLR 04/M07 A2991 RMK AO2
       T00371066

METAR KIML 200053Z AUTO 20004KT 10SM CLR 05/M06 A2992 RMK AO2 SLP159
       T00501056
METAR KIML 192353Z AUTO 19003KT 10SM CLR 06/M06 A2993 RMK AO2 SLP159
       T00611061 10161 20061 58017
METAR KIML 192253Z AUTO 20006KT 10SM CLR 13/M06 A2995 RMK AO2 SLP159
       T01331061

KMCK 192324Z 2000/2024 21006KT P6SM SCT270
     FM200600 25007KT P6SM SCT200
     FM202000 27012KT P6SM FEW280
     FM202200 27009KT P6SM FEW280
METAR KMCK 200053Z AUTO 25005KT 10SM CLR 08/M04 A2993 RMK AO2 SLP154
       T00781044
METAR KMCK 192353Z AUTO 19004KT 10SM CLR 10/M05 A2995 RMK AO2 SLP156
       T01001050 10167 20100 56013
METAR KMCK 192253Z AUTO 22008KT 10SM CLR 13/M05 A2996 RMK AO2 SLP158
       T01331050

North Platte (KLNX) 11/20/17 00:50 UTC
Radar VAD winds      Height      Dir/Spd(kt)
                   4000 FT MSL...280/002

North Platte Aviation Discussion
Issued at 2356 UTC Sunday, November 19, 2017

.AVIATION...(For the 00Z TAFS through 00Z Monday evening)
Issued at 555 PM CST Sun Nov 19 2017
VFR conditions will persist the next 24 hours across western
Nebraska. Scattered high cloudiness overnight into Monday morning
with broken high cloudiness by afternoon. West winds will gust to
20 kts Monday afternoon.


* * * * * Kansas * * * * *

KGLD 192324Z 2000/2024 21008KT P6SM SCT250
     FM200700 25010KT P6SM FEW250
     FM201800 24012KT P6SM FEW170 FEW300
     FM202200 28010KT P6SM SCT250
METAR KGLD 200053Z AUTO 20011KT 10SM CLR 09/M10 A2996 RMK AO2 SLP156
       T00941100
METAR KGLD 192353Z AUTO 20008KT 10SM CLR 07/M10 A2997 RMK AO2 SLP165
       T00721100 10161 20072 56013
METAR KGLD 192253Z AUTO 21007KT 10SM CLR 13/M11 A2998 RMK AO2 SLP160
       T01331106

KGCK 192320Z 2000/2024 23008KT P6SM SCT250
METAR KGCK 200054Z 18007KT 10SM CLR 07/M07 A3001 RMK AO2 SLP175
       T00671072
METAR KGCK 192354Z 17006KT 10SM CLR 11/M08 A3001 RMK AO2 SLP173
       T01061078 10161 20100 56018
METAR KGCK 192254Z 22003KT 10SM CLR 14/M06 A3002 RMK AO2 SLP173
       T01441056

METAR KLBL 200056Z AUTO 20010KT 10SM CLR 06/M07 A3004 RMK AO2 SLP191
       T00561072
METAR KLBL 192356Z AUTO 22010KT 10SM CLR 08/M08 A3005 RMK AO2 SLP191
       T00781078 10178 20078 56012
METAR KLBL 192256Z AUTO 22012KT 10SM CLR 14/M07 A3006 RMK AO2 SLP186
       T01441072

METAR KEHA 200055Z AUTO 20009KT 10SM CLR 04/M07 A3002 RMK AO2
       T00381074
METAR KEHA 200035Z AUTO 20009KT 10SM CLR 07/M07 A3003 RMK AO2
       T00691066
METAR KEHA 200015Z AUTO 21010KT 10SM CLR 07/M06 A3003 RMK AO2
       T00711065

Goodland (KGLD) 11/20/17 00:51 UTC
Radar VAD winds      Height      Dir/Spd(kt)
                   6000 FT MSL...262/001

Dodge City (KDDC) 11/20/17 00:47 UTC
Radar VAD winds      Height      Dir/Spd(kt)
                   7000 FT MSL...218/006
                   7000 FT MSL...267/007
                   6000 FT MSL...239/003
                   5400 FT MSL...201/010
                   5000 FT MSL...220/008
                   3600 FT MSL...190/013

Goodland Aviation Discussion
Issued at 2330 UTC Sunday, November 19, 2017

.AVIATION...(For the 00Z TAFS through 00Z Monday evening)
Issued at 430 PM MST Sun Nov 19 2017
For KGLD and KMCK, vfr conditions through the period. Both
terminals will see southwest winds under 10kts from taf issuance
through about 07z before veering to the west-southwest at similar
speeds through late morning/early afternoon Monday. There looks to
be a 2 to 3 hour period (19z-22z) where west or west/southwest
winds could gust near 20kts, after 22z winds become west near
10kts. Cloud cover will be limited to cirrus level.

Dodge City Aviation Discussion
Issued at 2316 UTC Sunday, November 19, 2017

.AVIATION...(For the 00Z TAFS through 00Z Monday evening)
Issued at 513 PM CST Sun Nov 19 2017
A trough of low pressure at the surface over eastern Colorado will
move into western Kansas early Monday as an upper level
disturbance exits the Central Rockies and moves into the Central
Plains. The southwest winds at around 10 knots overnight will
become more westerly at Garden City, Liberal and possibly even
Dodge City between 12z and 18z Monday as this surface boundary
moves into western Kansas. VFR conditions are expected tonight and
Monday.


* * * * * Texas/Oklahoma * * * * *

KGUY 192338Z 2000/2024 20010KT P6SM SCT250
     FM201600 26008KT P6SM SCT250
     FM202100 21007KT P6SM SCT250=
METAR KGUY 200053Z AUTO 20009KT 10SM CLR 05/M07 A3004 RMK AO2 SLP183
       T00501067
METAR KGUY 192353Z AUTO 20006KT 10SM CLR 08/M07 A3004 RMK AO2 SLP176
       T00831072 10178 20083 56011
METAR KGUY 192253Z AUTO 20011KT 10SM CLR 14/M08 A3005 RMK AO2 SLP172
       T01441083

KDHT 192338Z 2000/2024 20010KT P6SM FEW250
     FM201300 26007KT P6SM SCT250
     FM202100 20007KT P6SM SCT250
METAR KDHT 200053Z AUTO 21009KT 10SM CLR 07/M09 A3007 RMK AO2 SLP190
       T00671094
METAR KDHT 192353Z AUTO 21009KT 10SM CLR 08/M09 A3007 RMK AO2 SLP185
       T00781094 10167 20078 56014
METAR KDHT 192253Z AUTO 21016KT 10SM CLR 14/M11 A3008 RMK AO2 SLP178
       T01391106

Amarillo (KAMA) 11/20/17 00:48 UTC
Radar VAD winds      Height      Dir/Spd(kt)
                  16000 FT MSL...235/006
                  13000 FT MSL...164/031
                  12000 FT MSL...248/001
                  11500 FT MSL...273/004
                  11000 FT MSL...266/005
                  10000 FT MSL...187/021
                   9000 FT MSL...243/003
                   6000 FT MSL...211/038
                   5000 FT MSL...213/035
                   4700 FT MSL...209/033
                   4600 FT MSL...206/036
                   4000 FT MSL...201/025
                   4000 FT MSL...204/028

Amarillo Aviation Discussion
Issued at 2348 UTC Sunday, November 19, 2017

.AVIATION...
Will remain dry with VFR conditions. Only concern is for potential
of LLWS at AMA with 40kt low level jet forming overnight.
Currently we anticipate enough mixing and rather uniform direction
that the increase in winds will be gradual through the layer, but
will watch closely in case winds at sfc decouple and perhaps back
more than anticipated.
MJG


* * * * * New Mexico * * * * *

KFMN 192322Z 2000/2024 27006KT P6SM SCT250
     FM200200 VRB03KT P6SM FEW250
     FM200700 08006KT P6SM SCT250
     FM202000 28009KT P6SM BKN200
METAR KFMN 200053Z 00000KT 10SM CLR 03/M13 A3017 RMK AO2 SLP248
       T00331128
METAR KFMN 192353Z 26007KT 10SM CLR 05/M13 A3017 RMK AO2 SLP244
       T00501128 10094 20022 56013
METAR KFMN 192253Z 27005KT 10SM CLR 09/M12 A3017 RMK AO2 SLP239
       T00891117

METAR KSKX 200056Z AUTO 20004KT 10SM CLR 06/M15 A3019 RMK AO2 SLP252
       T00611150 $
METAR KSKX 192356Z AUTO 22005KT 10SM CLR 07/M15 A3018 RMK AO2 SLP243
       T00671150 10117 20050 56011 $
METAR KSKX 192256Z AUTO 24007KT 10SM CLR 11/M16 A3019 RMK AO2 SLP236
       T01111156 $

KLVS 192322Z 2000/2024 18012KT P6SM BKN250
     FM200200 20009KT P6SM SCT250
     FM201000 30010KT P6SM FEW250
     FM201700 27014G24KT P6SM SCT250
     FM202000 28018G28KT P6SM BKN200
METAR KLVS 200053Z AUTO 16010KT 10SM CLR 03/M13 A3009 RMK AO2 SLP187
       T00281133
METAR KLVS 192353Z AUTO 18009KT 10SM CLR 06/M14 A3009 RMK AO2 SLP174
       T00611139 10128 20061 56013
METAR KLVS 192253Z AUTO 17013KT 10SM CLR 12/M15 A3010 RMK AO2 SLP161
       T01171150

METAR KRTN 200053Z AUTO 26003KT 10SM CLR 06/M12 A3008 RMK AO2 SLP200
       T00561117
METAR KRTN 192353Z AUTO 20008KT 10SM CLR 06/M12 A3007 RMK AO2 SLP189
       T00611122 10139 20061 55008
METAR KRTN 192253Z AUTO 21009KT 10SM CLR 12/M14 A3007 RMK AO2 SLP170
       T01221144

METAR KCAO 200055Z AUTO 19006KT 10SM CLR 01/M10 A3004 RMK AO2 SLP188
       T00061100
METAR KCAO 192355Z AUTO 20007KT 10SM CLR 07/M10 A3005 RMK AO2 SLP177
       T00671100 10144 20067 56010
METAR KCAO 192255Z AUTO 22011KT 10SM CLR 11/M10 A3006 RMK AO2 SLP173
       T01061100

Albuquerque (KABX) 11/20/17 00:56 UTC
Radar VAD winds      Height      Dir/Spd(kt)
                   9000 FT MSL...034/003
                   8600 FT MSL...010/003
                   8000 FT MSL...301/009
                   6200 FT MSL...190/004

Albuquerque Aviation Discussion
Issued at 2353 UTC Sunday, November 19, 2017

.AVIATION...
00Z TAF CYCLE
VFR conditions with just high cirrus clouds will persist through the
next 24 hours. Stronger winds will impact the mountains and adjacent
highlands of central New Mexico Monday afternoon with potential
mountain wave activity. Gusts around 40kt will be common in these
areas.

* * * * * Winds and Temperatures Aloft Forecasts * * * * *

DATA BASED ON 191200Z
VALID 191800Z   FOR USE 1700-2100Z. TEMPS NEG ABV 24000
FT  3000    6000   9000    12000   18000   24000  30000  34000  39000
SLC      9900    2416+02 2725-03 2832-18 2832-31 283746 283856 304760
BCE                      2813+00 2824-16 2835-30 284046 305053 328058
LND              2723+02 2821-03 2726-19 2732-32 274048 284757 285663
RKS              2724    2726-04 2728-18 2831-31 283846 294356 285063
GJT              2310+00 2818-03 2925-17 2931-31 284045 284055 284561
FMN              2807+03 2916-01 3021-16 2932-29 284245 274654 284660
ABQ              3007+04 2812+00 2916-15 3030-28 283844 274154 284759
MBW              2735    2825-04 2726-18 2522-31 273448 284157 295363
DEN              2805+03 3209-03 2920-18 2817-30 283147 294156 295162
PUB              2705+04 2907-03 3023-18 2922-30 293446 294755 295361
ALS                      2909-02 3021-17 3030-30 294445 285454 295661
TCC      2326    2417+04 2717-01 2925-16 2935-29 304744 305453 285458
BFF      2817    2923+01 3123-04 2922-17 3126-32 304348 294858 295564
GLD      2409    2919+01 3124-05 3321-17 3328-30 314547 304857 295762
GCK      2217+07 2819+02 3125-05 3228-18 3138-29 304346 294756 295860
GAG      2321+04 2914+02 3123-04 3136-18 3035-28 294246 295055 286058
AMA      2221    2518+03 2917-01 2928-16 2937-29 284445 285253 285857
---------------------------------------------------------------------

DATA BASED ON 191200Z
VALID 200000Z   FOR USE 2100-0600Z. TEMPS NEG ABV 24000
FT  3000    6000   9000    12000   18000   24000  30000  34000  39000
SLC      1907    2614+02 2724-03 2930-17 3239-29 316146 318853 812961
BCE                      2816+00 3027-15 3149-27 317241 820149 821660
LND              2924+03 2926-03 2934-18 2938-31 294548 305655 317061
RKS              2731    2832-03 2936-18 2938-31 294347 305354 327760
GJT              2312+01 2820-02 2931-18 2937-31 294346 315952 328559
FMN              3007+04 2916-01 2925-16 2834-30 294346 315552 338158
ABQ              2907+05 2913+00 2923-15 2932-28 284246 294253 315657
MBW              2745    2839-04 2938-18 2837-31 293646 284156 294262
DEN              2716+04 2825-02 2825-18 2833-31 283647 284056 284261
PUB              2718+05 2918-02 2926-17 2930-30 293646 283655 283960
ALS                      2914-01 2926-17 2934-30 294046 283655 294158
TCC      2127    2815+05 2920+00 2926-15 2931-29 283745 274554 274559
BFF      2728    2826+02 2727-04 2833-19 2734-31 283848 294557 295064
GLD      2713    2817+03 2917-03 2719-18 2621-31 283347 294356 294762
GCK      2418+09 2813+03 2918-03 2816-17 2820-30 283147 294455 294861
GAG      2532+06 2709+04 2813-03 2923-17 2923-29 293845 295354 285261
AMA      2129    2621+04 2716-01 2826-16 2933-29 284244 285054 274860
---------------------------------------------------------------------

DATA BASED ON 191200Z
VALID 201200Z   FOR USE 0600-1700Z. TEMPS NEG ABV 24000
FT  3000    6000   9000    12000   18000   24000  30000  34000  39000
SLC      2206    2621+02 2730-03 2845-16 2952-27 299940 801249 816661
BCE                      2924+01 2940-12 2962-23 308238 810049 823361
LND              2842+01 2951-01 3038-15 3048-28 307846 800353 801561
RKS              2737    2845-03 2848-16 3057-27 308843 801450 812661
GJT              2414+01 2824-02 2941-15 3054-27 319140 810150 823062
FMN              2916+03 2924+00 3038-13 3260-25 318740 820149 831762
ABQ              3016+05 3020+01 3136-12 3254-24 328439 338750 841461
MBW              2755    2852-03 2850-17 2848-29 307144 318652 319460
DEN              2928+06 3023+00 3019-17 2937-30 317045 319652 821261
PUB              3115+07 3125-01 2929-16 3141-28 327242 329750 831361
ALS                      3026+00 3134-14 3140-28 328940 329951 832661
TCC      2918    3117+08 3119+01 3030-16 3349-26 337641 339650 840761
BFF      2949    2824+04 2929-03 2932-16 2736-30 305347 306654 317661
GLD      3011    2917+04 3029-03 3036-17 3336-29 324446 325954 326861
GCK      2812+11 2816+05 2919-02 2927-17 3033-30 334345 335054 326959
GAG      2424+10 2623+05 2724-01 2828-17 2733-31 303446 324753 325858
AMA      2720    2820+07 2920+00 2928-16 2935-30 335244 337351 338059
---------------------------------------------------------------------

This product is updated automatically at approximately 10, 30 and 50
minutes after each hour, 24 hours per day, 7 days per week.  It may
become unavailable at times due to system outages without prior notice.
Users are advised to check the time at the top of the product to ensure
that it is current.  Furthermore, content and format of the product are
subject to change without prior notice.

Comments and suggestions are welcome and should be directed to one of
the addresses or phone numbers shown at the bottom of this page.  In
order to expedite a response to comments or suggestions, be sure to
mention your interest in the hot-air balloon forecast.



USA.gov is the U.S. government's official web portal to all federal, state and local government web resources and services.